createdAt,value
2018-10-11T00:02:20.247Z,73.47
2018-10-11T00:04:47.545Z,76.30
2018-10-11T00:07:14.674Z,70.43
2018-10-11T00:09:41.797Z,70.07
2018-10-11T00:12:09.056Z,74.90
2018-10-11T00:14:36.309Z,78.77
2018-10-11T00:17:03.512Z,71.93
2018-10-11T00:19:30.672Z,73.97
2018-10-11T00:21:57.924Z,72.23
2018-10-11T00:24:25.027Z,69.47
2018-10-11T00:26:52.328Z,73.00
2018-10-11T00:29:19.361Z,65.10
2018-10-11T00:31:46.468Z,70.30
2018-10-11T00:34:14.100Z,66.90
2018-10-11T00:36:41.256Z,71.90
2018-10-11T00:39:08.589Z,70.00
2018-10-11T00:41:35.888Z,73.13
2018-10-11T00:44:03.342Z,73.57
2018-10-11T00:46:30.384Z,71.17
2018-10-11T00:48:57.448Z,69.30
2018-10-11T00:51:25.764Z,69.50
2018-10-11T00:53:52.788Z,67.70
2018-10-11T00:56:20.156Z,74.90
2018-10-11T00:58:47.263Z,68.87
2018-10-11T01:01:14.291Z,70.10
2018-10-11T01:03:41.644Z,71.57
2018-10-11T01:06:09.284Z,73.93
2018-10-11T01:08:36.352Z,74.27
2018-10-11T01:11:04.072Z,68.93
2018-10-11T01:13:31.152Z,75.00
2018-10-11T01:15:58.183Z,68.57
2018-10-11T01:18:25.567Z,71.47
2018-10-11T01:20:52.702Z,83.97
2018-10-11T01:23:19.787Z,71.33
2018-10-11T01:25:47.297Z,79.53
2018-10-11T01:28:14.387Z,74.40
2018-10-11T01:30:46.084Z,70.97
2018-10-11T01:33:13.141Z,73.43
2018-10-11T01:35:40.159Z,73.23
2018-10-11T01:38:07.261Z,73.40
2018-10-11T01:40:34.319Z,69.23
2018-10-11T01:43:03.390Z,71.70
2018-10-11T01:45:30.474Z,71.87
2018-10-11T01:47:58.092Z,85.17
2018-10-11T01:50:25.100Z,73.10
2018-10-11T01:52:52.135Z,68.47
2018-10-11T01:55:19.532Z,69.60
2018-10-11T01:57:46.679Z,65.37
2018-10-11T02:00:13.715Z,71.30
2018-10-11T02:02:40.747Z,66.50
2018-10-11T02:05:08.060Z,71.23
2018-10-11T02:07:35.139Z,71.17
2018-10-11T02:10:02.204Z,78.30
2018-10-11T02:12:29.249Z,72.77
2018-10-11T02:14:56.288Z,69.00
2018-10-11T02:17:23.576Z,77.33
2018-10-11T02:19:50.620Z,67.90
2018-10-11T02:22:17.649Z,84.33
2018-10-11T02:24:44.711Z,73.20
2018-10-11T02:27:11.738Z,73.50
2018-10-11T02:29:38.972Z,76.60
2018-10-11T02:32:06.174Z,73.37
2018-10-11T02:34:33.152Z,75.00
2018-10-11T02:37:00.239Z,77.83
2018-10-11T02:39:27.317Z,74.00
2018-10-11T02:41:54.356Z,77.57
2018-10-11T02:44:21.388Z,77.33
2018-10-11T02:46:48.447Z,72.13
2018-10-11T02:49:15.503Z,80.47
2018-10-11T02:51:42.627Z,86.97
2018-10-11T02:54:09.896Z,79.50
2018-10-11T02:56:36.936Z,87.17
2018-10-11T02:59:09.812Z,73.43
2018-10-11T03:01:36.836Z,86.13
2018-10-11T03:04:04.614Z,75.67
2018-10-11T03:06:34.777Z,74.20
2018-10-11T03:09:01.829Z,85.17
2018-10-11T03:11:28.848Z,75.10
2018-10-11T03:13:56.199Z,77.40
2018-10-11T03:16:23.219Z,82.53
2018-10-11T03:18:50.256Z,75.63
2018-10-11T03:21:17.328Z,73.63
2018-10-11T03:23:44.352Z,90.67
2018-10-11T03:26:11.384Z,75.00
2018-10-11T03:28:38.869Z,78.00
2018-10-11T03:31:06.189Z,74.23
2018-10-11T03:33:33.221Z,76.50
2018-10-11T03:36:00.268Z,72.50
2018-10-11T03:38:27.283Z,75.43
2018-10-11T03:40:54.301Z,80.60
2018-10-11T03:45:55.431Z,80.53
2018-10-11T03:48:22.780Z,78.73
2018-10-11T03:50:49.896Z,70.30
2018-10-11T03:53:16.919Z,69.20
2018-10-11T03:55:44.248Z,73.73
2018-10-11T03:58:11.352Z,74.87
2018-10-11T04:00:38.376Z,79.47
2018-10-11T04:03:05.404Z,77.07
2018-10-11T04:05:32.437Z,79.00
2018-10-11T04:07:59.468Z,82.27
2018-10-11T04:10:26.775Z,73.87
2018-10-11T04:12:53.826Z,72.27
2018-10-11T04:15:20.893Z,76.80
2018-10-11T04:17:48.375Z,75.67
2018-10-11T04:20:15.406Z,84.07
2018-10-11T04:22:42.454Z,75.10
2018-10-11T04:25:09.779Z,80.23
2018-10-11T04:27:36.791Z,75.27
2018-10-11T04:30:04.007Z,74.07
2018-10-11T04:32:31.639Z,79.90
2018-10-11T04:34:58.648Z,74.87
2018-10-11T04:37:26.488Z,75.80
2018-10-11T04:39:53.855Z,78.97
2018-10-11T04:42:20.892Z,82.50
2018-10-11T04:44:48.011Z,75.17
2018-10-11T04:47:15.407Z,80.07
2018-10-11T04:49:42.427Z,73.50
2018-10-11T04:52:09.439Z,71.47
2018-10-11T04:54:36.467Z,71.80
2018-10-11T04:57:03.487Z,67.63
2018-10-11T04:59:30.517Z,70.33
2018-10-11T05:01:57.804Z,68.73
2018-10-11T05:04:24.919Z,68.00
2018-10-11T05:06:51.936Z,67.40
2018-10-11T05:09:19.249Z,71.20
2018-10-11T05:11:46.267Z,72.93
2018-10-11T05:14:14.075Z,66.00
2018-10-11T05:16:41.199Z,73.50
2018-10-11T05:19:08.212Z,73.00
2018-10-11T05:21:35.293Z,68.70
2018-10-11T05:24:02.271Z,75.27
2018-10-11T05:26:29.380Z,78.00
2018-10-11T05:28:56.419Z,76.40
2018-10-11T05:31:23.679Z,71.20
2018-10-11T05:33:51.464Z,72.67
2018-10-11T05:36:18.486Z,77.53
2018-10-11T05:38:45.544Z,66.50
2018-10-11T05:41:12.731Z,68.37
2018-10-11T05:43:39.920Z,70.27
2018-10-11T05:46:10.448Z,69.97
2018-10-11T05:48:37.476Z,72.83
2018-10-11T05:51:04.556Z,63.63
2018-10-11T05:53:31.843Z,73.37
2018-10-11T05:55:58.891Z,69.57
2018-10-11T05:58:26.569Z,67.53
2018-10-11T06:00:53.607Z,69.57
2018-10-11T06:03:20.640Z,69.50
2018-10-11T06:05:47.667Z,76.20
2018-10-11T06:08:15.889Z,62.83
2018-10-11T06:10:43.551Z,71.00
2018-10-11T06:13:10.788Z,73.40
2018-10-11T06:15:38.252Z,69.77
2018-10-11T06:18:05.300Z,61.40
2018-10-11T06:20:32.403Z,68.63
2018-10-11T06:22:59.700Z,67.47
2018-10-11T06:25:26.736Z,69.97
2018-10-11T06:27:53.758Z,71.07
2018-10-11T06:30:21.231Z,61.93
2018-10-11T06:32:48.209Z,64.90
2018-10-11T06:35:15.240Z,59.93
2018-10-11T06:37:42.624Z,63.33
2018-10-11T06:40:09.663Z,62.17
2018-10-11T06:42:36.866Z,64.77
2018-10-11T06:45:04.220Z,66.47
2018-10-11T06:47:31.244Z,72.47
2018-10-11T06:49:59.274Z,58.67
2018-10-11T06:52:26.528Z,64.40
2018-10-11T06:54:53.572Z,60.40
2018-10-11T06:57:20.611Z,56.93
2018-10-11T06:59:47.736Z,66.40
2018-10-11T07:02:14.752Z,64.30
2018-10-11T07:04:41.777Z,65.60
2018-10-11T07:07:08.934Z,54.33
2018-10-11T07:09:35.944Z,58.17
2018-10-11T07:12:02.981Z,59.57
2018-10-11T07:14:30.050Z,56.17
2018-10-11T07:16:57.100Z,65.67
2018-10-11T07:19:24.232Z,50.20
2018-10-11T07:21:51.232Z,52.27
2018-10-11T07:24:18.284Z,49.83
2018-10-11T07:26:45.386Z,47.40
2018-10-11T07:29:12.760Z,46.73
2018-10-11T07:31:39.804Z,46.13
2018-10-11T07:34:06.868Z,46.03
2018-10-11T07:36:33.919Z,49.77
2018-10-11T07:39:00.961Z,45.83
2018-10-11T07:41:28.037Z,46.43
2018-10-11T07:43:55.252Z,44.77
2018-10-11T07:46:22.279Z,45.63
2018-10-11T07:48:49.337Z,56.27
2018-10-11T07:51:16.707Z,45.13
2018-10-11T07:53:43.758Z,49.07
2018-10-11T07:56:10.832Z,42.97
2018-10-11T07:58:37.924Z,45.17
2018-10-11T08:01:05.037Z,41.27
2018-10-11T08:03:32.139Z,37.07
2018-10-11T08:05:59.407Z,40.60
2018-10-11T08:08:26.464Z,46.10
2018-10-11T08:10:54.797Z,44.23
2018-10-11T08:13:22.777Z,39.20
2018-10-11T08:15:49.821Z,45.93
2018-10-11T08:18:16.861Z,41.43
2018-10-11T08:20:44.247Z,41.00
2018-10-11T08:23:11.364Z,36.23
2018-10-11T08:25:38.838Z,47.23
2018-10-11T08:28:05.569Z,40.70
2018-10-11T08:30:32.628Z,47.13
2018-10-11T08:32:59.804Z,37.07
2018-10-11T08:35:26.824Z,34.60
2018-10-11T08:37:54.007Z,38.33
2018-10-11T08:40:20.916Z,34.03
2018-10-11T08:42:48.264Z,39.77
2018-10-11T08:45:15.411Z,40.07
2018-10-11T08:47:42.600Z,37.73
2018-10-11T08:50:09.983Z,38.83
2018-10-11T08:52:37.008Z,34.60
2018-10-11T08:55:04.051Z,42.47
2018-10-11T08:57:31.152Z,34.23
2018-10-11T08:59:58.185Z,35.90
2018-10-11T09:02:25.255Z,32.33
2018-10-11T09:04:52.564Z,32.83
2018-10-11T09:07:19.652Z,40.10
2018-10-11T09:09:53.438Z,31.87
2018-10-11T09:12:14.443Z,38.67
2018-10-11T09:14:41.569Z,35.93
2018-10-11T09:17:08.612Z,42.13
2018-10-11T09:19:35.647Z,36.50
2018-10-11T09:22:02.819Z,33.70
2018-10-11T09:24:30.191Z,32.17
2018-10-11T09:26:57.265Z,33.50
2018-10-11T09:29:24.307Z,30.73
2018-10-11T09:31:51.384Z,32.90
2018-10-11T09:34:18.686Z,27.93
2018-10-11T09:36:45.876Z,29.53
2018-10-11T09:39:12.944Z,32.30
2018-10-11T09:41:40.003Z,30.10
2018-10-11T09:44:07.368Z,32.33
2018-10-11T09:46:34.412Z,28.50
2018-10-11T09:49:02.077Z,27.97
2018-10-11T09:51:29.118Z,25.30
2018-10-11T09:53:56.173Z,32.20
2018-10-11T09:56:26.222Z,26.23
2018-10-11T09:58:53.248Z,32.83
2018-10-11T10:01:26.355Z,36.83
2018-10-11T10:03:53.435Z,31.07
2018-10-11T10:06:20.528Z,29.73
2018-10-11T10:08:47.836Z,34.33
2018-10-11T10:11:14.872Z,29.33
2018-10-11T10:13:41.912Z,26.20
2018-10-11T10:16:08.974Z,32.63
2018-10-11T10:18:36.370Z,35.73
2018-10-11T10:21:03.468Z,27.70
2018-10-11T10:23:30.485Z,26.40
2018-10-11T10:25:57.507Z,28.17
2018-10-11T10:28:24.536Z,25.00
2018-10-11T10:30:53.128Z,28.93
2018-10-11T10:33:21.248Z,31.80
2018-10-11T10:35:48.581Z,27.43
2018-10-11T10:38:16.274Z,26.83
2018-10-11T10:40:43.295Z,32.57
2018-10-11T10:43:10.311Z,24.63
2018-10-11T10:45:37.385Z,24.77
2018-10-11T10:48:04.480Z,27.87
2018-10-11T10:50:31.491Z,30.47
2018-10-11T10:52:59.357Z,26.33
2018-10-11T10:55:26.377Z,31.00
2018-10-11T10:57:53.419Z,31.33
2018-10-11T11:00:20.563Z,21.40
2018-10-11T11:02:47.592Z,29.30
2018-10-11T11:05:14.664Z,22.23
2018-10-11T11:07:42.135Z,27.47
2018-10-11T11:10:09.175Z,30.00
2018-10-11T11:12:36.266Z,29.23
2018-10-11T11:15:03.688Z,31.33
2018-10-11T11:17:30.749Z,32.93
2018-10-11T11:19:57.800Z,26.40
2018-10-11T11:22:24.914Z,28.30
2018-10-11T11:24:51.999Z,26.73
2018-10-11T11:27:19.116Z,25.23
2018-10-11T11:29:46.267Z,27.33
2018-10-11T11:32:13.305Z,25.90
2018-10-11T11:34:40.448Z,27.37
2018-10-11T11:37:07.735Z,30.43
2018-10-11T11:39:34.783Z,23.33
2018-10-11T11:42:01.829Z,24.83
2018-10-11T11:44:29.057Z,22.13
2018-10-11T11:46:56.404Z,25.47
2018-10-11T11:49:23.423Z,28.47
2018-10-11T11:51:50.735Z,29.47
2018-10-11T11:54:18.723Z,32.90
2018-10-11T11:56:45.748Z,29.07
2018-10-11T11:59:12.851Z,25.03
2018-10-11T12:01:39.876Z,22.90
2018-10-11T12:04:06.935Z,31.63
2018-10-11T12:06:34.287Z,26.30
2018-10-11T12:09:01.316Z,27.00
2018-10-11T12:11:28.337Z,25.10
2018-10-11T12:13:55.411Z,29.07
2018-10-11T12:16:22.505Z,24.10
2018-10-11T12:18:49.535Z,29.67
2018-10-11T12:21:16.852Z,35.23
2018-10-11T12:23:43.908Z,24.43
2018-10-11T12:26:11.029Z,26.27
2018-10-11T12:28:38.217Z,28.70
2018-10-11T12:31:05.347Z,24.37
2018-10-11T12:33:32.483Z,25.47
2018-10-11T12:35:59.848Z,31.50
2018-10-11T12:38:26.894Z,26.73
2018-10-11T12:40:54.015Z,31.83
2018-10-11T12:43:21.347Z,30.83
2018-10-11T12:45:48.387Z,24.97
2018-10-11T12:48:15.420Z,33.80
2018-10-11T12:50:42.540Z,31.23
2018-10-11T12:53:09.593Z,27.20
2018-10-11T12:55:36.635Z,23.50
2018-10-11T12:58:03.995Z,24.50
2018-10-11T13:00:31.166Z,27.60
2018-10-11T13:02:58.376Z,28.47
2018-10-11T13:05:25.399Z,21.90
2018-10-11T13:07:52.431Z,22.50
2018-10-11T13:10:19.456Z,33.67
2018-10-11T13:12:46.589Z,28.87
2018-10-11T13:15:13.624Z,26.60
2018-10-11T13:17:43.388Z,24.00
2018-10-11T13:20:07.992Z,28.90
2018-10-11T13:22:35.301Z,24.90
2018-10-11T13:25:03.118Z,23.90
2018-10-11T13:27:30.168Z,24.33
2018-10-11T13:29:57.216Z,24.13
2018-10-11T13:32:24.259Z,22.33
2018-10-11T13:34:51.698Z,25.77
2018-10-11T13:37:18.708Z,25.77
2018-10-11T13:39:50.534Z,36.43
2018-10-11T13:42:12.871Z,37.50
2018-10-11T13:44:39.905Z,32.63
2018-10-11T13:47:07.000Z,25.20
2018-10-11T13:49:34.028Z,25.10
2018-10-11T13:52:01.263Z,23.00
2018-10-11T13:54:28.283Z,32.23
2018-10-11T13:56:58.796Z,36.13
2018-10-11T13:59:22.389Z,19.97
2018-10-11T14:01:49.448Z,28.93
2018-10-11T14:04:16.511Z,27.47
2018-10-11T14:06:43.532Z,30.00
2018-10-11T14:09:11.880Z,37.40
2018-10-11T14:11:40.327Z,24.90
2018-10-11T14:14:07.435Z,33.23
2018-10-11T14:16:34.536Z,27.60
2018-10-11T14:19:02.101Z,30.13
2018-10-11T14:21:29.240Z,27.40
2018-10-11T14:23:56.667Z,26.50
2018-10-11T14:26:24.016Z,26.67
2018-10-11T14:28:51.540Z,24.67
2018-10-11T14:31:18.921Z,28.63
2018-10-11T14:33:46.044Z,26.83
2018-10-11T14:36:13.831Z,24.70
2018-10-11T14:38:40.840Z,36.60
2018-10-11T14:41:08.551Z,22.13
2018-10-11T14:43:35.712Z,22.27
2018-10-11T14:46:02.761Z,26.20
2018-10-11T14:48:29.975Z,26.20
2018-10-11T14:50:57.044Z,31.17
2018-10-11T14:53:24.035Z,33.00
2018-10-11T14:55:51.599Z,24.97
2018-10-11T14:58:18.627Z,25.27
2018-10-11T15:00:45.782Z,31.67
2018-10-11T15:03:12.889Z,40.20
2018-10-11T15:05:39.960Z,25.83
2018-10-11T15:08:07.016Z,26.00
2018-10-11T15:10:34.546Z,28.60
2018-10-11T15:13:01.440Z,30.90
2018-10-11T15:15:28.564Z,32.23
2018-10-11T15:17:56.015Z,25.40
2018-10-11T15:20:23.004Z,22.33
2018-10-11T15:22:50.032Z,23.93
2018-10-11T15:25:19.568Z,31.40
2018-10-11T15:27:47.308Z,30.80
2018-10-11T15:30:15.455Z,29.70
2018-10-11T15:32:42.564Z,23.90
2018-10-11T15:35:09.592Z,29.60
2018-10-11T15:37:36.691Z,22.83
2018-10-11T15:40:04.195Z,24.00
2018-10-11T15:42:31.426Z,28.33
2018-10-11T15:44:58.471Z,30.57
2018-10-11T15:47:25.511Z,23.33
2018-10-11T15:49:52.569Z,34.40
2018-10-11T15:52:19.649Z,32.47
2018-10-11T15:54:47.010Z,32.53
2018-10-11T15:57:14.113Z,28.57
2018-10-11T15:59:41.388Z,28.37
2018-10-11T16:02:08.904Z,26.87
2018-10-11T16:04:35.928Z,28.77
2018-10-11T16:07:02.955Z,25.93
2018-10-11T16:09:30.090Z,22.90
2018-10-11T16:11:57.104Z,27.97
2018-10-11T16:14:24.219Z,37.10
2018-10-11T16:16:51.592Z,29.20
2018-10-11T16:19:18.633Z,31.97
2018-10-11T16:21:52.774Z,30.77
2018-10-11T16:24:19.840Z,27.83
2018-10-11T16:26:46.861Z,39.33
2018-10-11T16:29:13.908Z,34.93
2018-10-11T16:31:40.927Z,33.57
2018-10-11T16:34:08.067Z,37.23
2018-10-11T16:36:35.143Z,35.20
2018-10-11T16:39:02.294Z,35.80
2018-10-11T16:41:29.313Z,36.57
2018-10-11T16:43:56.770Z,29.90
2018-10-11T16:46:23.796Z,30.20
2018-10-11T16:48:50.827Z,30.03
2018-10-11T16:51:17.968Z,35.60
2018-10-11T16:53:45.039Z,39.27
2018-10-11T16:56:12.063Z,40.40
2018-10-11T16:58:39.335Z,40.43
2018-10-11T17:01:06.608Z,35.03
2018-10-11T17:03:33.646Z,41.53
2018-10-11T17:06:00.988Z,37.00
2018-10-11T17:08:28.115Z,43.13
2018-10-11T17:10:55.275Z,40.77
2018-10-11T17:13:22.439Z,46.90
2018-10-11T17:15:49.567Z,40.60
2018-10-11T17:18:16.596Z,44.03
2018-10-11T17:20:43.684Z,44.40
2018-10-11T17:23:10.804Z,43.50
2018-10-11T17:25:37.872Z,37.87
2018-10-11T17:28:05.258Z,43.23
2018-10-11T17:30:32.296Z,46.07
2018-10-11T17:32:59.360Z,42.97
2018-10-11T17:35:26.804Z,54.07
2018-10-11T17:37:53.911Z,34.23
2018-10-11T17:40:21.041Z,36.83
2018-10-11T17:42:48.099Z,38.20
2018-10-11T17:45:15.127Z,46.10
2018-10-11T17:47:42.184Z,46.80
2018-10-11T17:50:09.525Z,42.87
2018-10-11T17:52:36.647Z,39.37
2018-10-11T17:55:03.663Z,40.67
2018-10-11T17:57:30.725Z,42.20
2018-10-11T17:59:57.905Z,49.07
2018-10-11T18:02:24.937Z,41.20
2018-10-11T18:04:52.856Z,45.33
2018-10-11T18:07:19.936Z,49.10
2018-10-11T18:09:47.360Z,39.83
2018-10-11T18:12:14.416Z,41.43
2018-10-11T18:14:41.514Z,44.47
2018-10-11T18:17:08.536Z,34.43
2018-10-11T18:19:35.819Z,40.60
2018-10-11T18:22:02.916Z,46.30
2018-10-11T18:24:30.037Z,45.90
2018-10-11T18:26:57.201Z,39.53
2018-10-11T18:29:24.272Z,43.17
2018-10-11T18:31:51.492Z,41.20
2018-10-11T18:34:18.667Z,42.13
2018-10-11T18:36:45.772Z,39.53
2018-10-11T18:39:14.263Z,46.33
2018-10-11T18:41:41.776Z,47.83
2018-10-11T18:44:09.459Z,48.47
2018-10-11T18:46:36.575Z,53.17
2018-10-11T18:49:04.182Z,49.23
2018-10-11T18:51:31.221Z,41.20
2018-10-11T18:53:58.361Z,44.43
2018-10-11T18:56:25.795Z,60.10
2018-10-11T18:58:53.353Z,41.40
2018-10-11T19:01:21.262Z,48.10
2018-10-11T19:03:48.593Z,42.03
2018-10-11T19:06:16.071Z,42.50
2018-10-11T19:08:43.266Z,40.43
2018-10-11T19:11:10.557Z,44.30
2018-10-11T19:13:37.720Z,49.57
2018-10-11T19:16:04.760Z,54.03
2018-10-11T19:18:32.137Z,50.20
2018-10-11T19:20:59.322Z,47.83
2018-10-11T19:23:26.869Z,53.20
2018-10-11T19:25:54.336Z,49.03
2018-10-11T19:28:21.361Z,48.00
2018-10-11T19:30:48.482Z,53.83
2018-10-11T19:33:15.500Z,48.77
2018-10-11T19:35:42.537Z,36.87
2018-10-11T19:38:09.769Z,41.10
2018-10-11T19:40:36.985Z,43.13
2018-10-11T19:43:04.197Z,48.70
2018-10-11T19:45:31.354Z,36.23
2018-10-11T19:47:58.472Z,38.93
2018-10-11T19:50:25.986Z,30.87
2018-10-11T19:52:53.100Z,35.13
2018-10-11T19:55:20.421Z,34.77
2018-10-11T19:57:47.568Z,31.13
2018-10-11T20:00:14.655Z,39.07
2018-10-11T20:02:42.214Z,38.30
2018-10-11T20:05:09.244Z,35.70
2018-10-11T20:07:36.312Z,34.67
2018-10-11T20:10:03.468Z,38.40
2018-10-11T20:12:30.593Z,33.40
2018-10-11T20:14:57.879Z,30.97
2018-10-11T20:17:25.583Z,34.67
2018-10-11T20:19:52.588Z,30.53
2018-10-11T20:22:19.668Z,37.27
2018-10-11T20:24:46.702Z,43.07
2018-10-11T20:27:13.803Z,38.87
2018-10-11T20:29:40.887Z,35.07
2018-10-11T20:32:08.956Z,32.10
2018-10-11T20:34:35.995Z,36.13
2018-10-11T20:37:03.072Z,34.60
2018-10-11T20:39:30.491Z,33.00
2018-10-11T20:41:57.511Z,35.63
2018-10-11T20:44:24.724Z,33.20
2018-10-11T20:46:51.916Z,32.33
2018-10-11T20:49:19.019Z,34.23
2018-10-11T20:51:46.133Z,30.80
2018-10-11T20:54:13.372Z,36.63
2018-10-11T20:56:40.477Z,31.23
2018-10-11T20:59:07.532Z,30.90
2018-10-11T21:01:34.900Z,36.30
2018-10-11T21:04:02.093Z,38.47
2018-10-11T21:06:29.302Z,47.40
2018-10-11T21:08:56.636Z,31.03
2018-10-11T21:11:23.861Z,37.50
2018-10-11T21:13:51.788Z,32.80
2018-10-11T21:16:18.909Z,36.00
2018-10-11T21:18:45.992Z,32.33
2018-10-11T21:21:13.351Z,39.33
2018-10-11T21:23:41.023Z,27.33
2018-10-11T21:26:08.088Z,37.67
2018-10-11T21:28:35.489Z,44.87
2018-10-11T21:31:02.864Z,33.90
2018-10-11T21:33:29.920Z,37.90
2018-10-11T21:35:56.945Z,33.37
2018-10-11T21:38:24.075Z,28.60
2018-10-11T21:40:51.118Z,27.63
2018-10-11T21:43:18.375Z,28.37
2018-10-11T21:45:45.407Z,29.50
2018-10-11T21:48:12.436Z,27.00
2018-10-11T21:50:39.491Z,31.30
2018-10-11T21:53:07.112Z,33.77
2018-10-11T21:55:34.217Z,33.83
2018-10-11T21:58:01.624Z,28.90
2018-10-11T22:00:34.785Z,30.20
2018-10-11T22:03:01.821Z,30.20
2018-10-11T22:05:29.054Z,30.53
2018-10-11T22:07:56.170Z,33.97
2018-10-11T22:10:23.385Z,30.83
2018-10-11T22:12:51.299Z,28.00
2018-10-11T22:15:18.720Z,31.90
2018-10-11T22:17:45.849Z,34.63
2018-10-11T22:20:13.037Z,36.67
2018-10-11T22:22:40.467Z,35.00
2018-10-11T22:25:07.662Z,30.90
2018-10-11T22:27:34.752Z,26.70
2018-10-11T22:30:02.007Z,32.47
2018-10-11T22:32:29.148Z,31.10
2018-10-11T22:34:56.179Z,33.50
2018-10-11T22:37:23.491Z,28.77
2018-10-11T22:39:50.580Z,29.70
2018-10-11T22:42:17.640Z,36.90
2018-10-11T22:44:45.040Z,28.50
2018-10-11T22:47:12.189Z,30.47
2018-10-11T22:49:39.397Z,33.00
2018-10-11T22:52:07.004Z,32.87
2018-10-11T22:54:34.061Z,31.90
2018-10-11T22:57:01.224Z,32.20
2018-10-11T22:59:28.394Z,30.13
2018-10-11T23:01:55.483Z,29.10
2018-10-11T23:04:22.700Z,28.33
2018-10-11T23:06:50.018Z,29.47
2018-10-11T23:09:17.264Z,27.60
2018-10-11T23:11:44.421Z,30.70
2018-10-11T23:14:11.931Z,30.60
2018-10-11T23:16:39.335Z,31.33
2018-10-11T23:19:06.589Z,25.70
2018-10-11T23:21:33.736Z,27.30
2018-10-11T23:24:01.161Z,30.00
2018-10-11T23:26:28.307Z,30.83
2018-10-11T23:28:55.519Z,27.77
2018-10-11T23:31:24.752Z,31.60
2018-10-11T23:33:52.680Z,27.53
2018-10-11T23:36:20.954Z,29.40
2018-10-11T23:38:48.081Z,34.93
2018-10-11T23:41:15.193Z,29.47
2018-10-11T23:43:42.413Z,29.23
2018-10-11T23:46:09.517Z,31.77
2018-10-11T23:48:36.707Z,33.97
2018-10-11T23:51:04.040Z,33.07
2018-10-11T23:53:31.092Z,28.47
2018-10-11T23:55:58.256Z,33.10
2018-10-11T23:58:25.351Z,31.43
